Historique des stations

Station météo de Orçay

Altitude de la station : 145 m







Données météorologiques pour le 28/11/2021
Date
Heure
Températures Humidité Point de rosée Vitesse
du vent
Direction Rafales Windchill Pression Pluviométrie
Cumul
Date
Heure
Températures Humidité Point de rosée Vitesse
du vent
Direction Rafales Windchill Pression Pluviométrie
Cumul
28/11/2021 21:010.5 °C88 %-1.1 °C6 km/hONO8 km/h-1.1 1009 hPa6.8 mm
28/11/2021 20:590.5 °C88 %-1.1 °C8 km/hONO31 km/h-2.2 1009 hPa6.8 mm
28/11/2021 20:460.7 °C88 %-1.1 °C5 km/hONO8 km/h-0.6 1009 hPa6.8 mm
28/11/2021 20:440.7 °C88 %-1.1 °C5 km/hONO31 km/h-0.6 1009 hPa6.8 mm
28/11/2021 20:310.8 °C88 %-1.1 °C5 km/hNO8 km/h-0.6 1009 hPa6.8 mm
28/11/2021 20:290.8 °C88 %-1.1 °C6 km/hONO31 km/h-1.1 1009 hPa6.8 mm
28/11/2021 20:160.9 °C87 %-1.1 °C6 km/hO13 km/h-0.6 1009 hPa6.8 mm
28/11/2021 20:150.9 °C87 %-1.1 °C6 km/hONO31 km/h-0.6 1009 hPa6.8 mm
28/11/2021 20:011.2 °C87 %-0.6 °C5 km/hO11 km/h0.0 1009 hPa6.8 mm
28/11/2021 20:001.2 °C87 %-0.6 °C6 km/hNO31 km/h-0.6 1009 hPa6.8 mm
28/11/2021 19:451.2 °C87 %-0.6 °C5 km/hONO31 km/h0.0 1009 hPa6.8 mm
28/11/2021 19:311.5 °C87 %-0.6 °C6 km/hONO11 km/h0.0 1009 hPa6.8 mm
28/11/2021 19:301.5 °C87 %-0.6 °C8 km/hONO31 km/h-1.1 1008 hPa6.8 mm
28/11/2021 19:161.8 °C86 %-0.6 °C5 km/hONO11 km/h0.6 1008 hPa6.8 mm
28/11/2021 19:151.8 °C86 %-0.6 °C3 km/hONO31 km/h0.6 1008 hPa6.8 mm
28/11/2021 19:002.0 °C86 %0.0 °C5 km/hONO31 km/h1.1 1008 hPa6.8 mm
28/11/2021 18:452.3 °C85 %0.0 °C11 km/hO16 km/h-0.6 1008 hPa6.8 mm
28/11/2021 18:442.3 °C85 %0.0 °C5 km/hONO31 km/h1.1 1008 hPa6.8 mm
28/11/2021 18:302.5 °C85 %0.0 °C5 km/hNO16 km/h1.7 1008 hPa6.8 mm
28/11/2021 18:292.6 °C84 %0.0 °C8 km/hNO31 km/h0.6 1008 hPa6.8 mm
28/11/2021 18:162.8 °C84 %0.6 °C13 km/hONO18 km/h-0.6 1008 hPa6.8 mm
28/11/2021 18:122.8 °C84 %0.6 °C6 km/hO31 km/h1.1 1008 hPa6.8 mm
28/11/2021 18:013.1 °C85 %0.6 °C11 km/hNO23 km/h0.6 1007 hPa6.8 mm
28/11/2021 17:593.1 °C85 %0.6 °C10 km/hNO31 km/h0.6 1007 hPa6.8 mm
28/11/2021 17:453.2 °C86 %1.1 °C19 km/hONO19 km/h-0.6 1007 hPa6.8 mm
28/11/2021 17:433.2 °C85 %1.1 °C11 km/hO31 km/h0.6 1007 hPa6.8 mm
28/11/2021 17:303.2 °C85 %1.1 °C6 km/hO10 km/h1.7 1007 hPa6.8 mm
28/11/2021 17:293.2 °C85 %1.1 °C5 km/hO31 km/h2.2 1007 hPa6.8 mm
28/11/2021 17:153.3 °C84 %1.1 °C6 km/hONO18 km/h1.7 1007 hPa6.8 mm
28/11/2021 17:143.3 °C84 %1.1 °C5 km/hNO31 km/h2.2 1007 hPa6.8 mm
28/11/2021 17:003.4 °C83 %0.6 °C8 km/hNO16 km/h1.1 1007 hPa6.8 mm
28/11/2021 16:583.4 °C83 %0.6 °C3 km/hONO31 km/h2.2 1007 hPa6.8 mm
28/11/2021 16:453.7 °C82 %1.1 °C10 km/hNO16 km/h1.1 1007 hPa6.8 mm
28/11/2021 16:443.7 °C81 %0.6 °C10 km/hO31 km/h1.1 1007 hPa6.8 mm
28/11/2021 16:303.9 °C82 %1.1 °C13 km/hONO18 km/h1.1 1007 hPa6.8 mm
28/11/2021 16:293.9 °C82 %1.1 °C10 km/hN31 km/h1.1 1007 hPa6.8 mm
28/11/2021 16:154.1 °C85 %1.7 °C5 km/hNO19 km/h2.8 1007 hPa6.6 mm
28/11/2021 16:144.1 °C86 %2.2 °C8 km/hNO31 km/h1.7 1006 hPa6.6 mm
28/11/2021 16:003.9 °C89 %2.2 °C6 km/hONO14 km/h2.2 1006 hPa6.6 mm
28/11/2021 15:593.9 °C89 %2.2 °C5 km/hNO31 km/h2.8 1006 hPa6.6 mm
28/11/2021 15:453.9 °C89 %2.2 °C5 km/hONO14 km/h2.8 1006 hPa6.6 mm
28/11/2021 15:443.8 °C89 %2.2 °C6 km/hONO31 km/h2.2 1006 hPa6.6 mm
28/11/2021 15:303.8 °C89 %2.2 °C5 km/hONO14 km/h2.8 1006 hPa6.6 mm
28/11/2021 15:283.8 °C89 %2.2 °C8 km/hNO31 km/h1.7 1006 hPa6.6 mm
28/11/2021 15:143.7 °C89 %2.2 °C13 km/hONO31 km/h1.1 1006 hPa6.6 mm
28/11/2021 15:003.6 °C89 %2.2 °C18 km/hNO19 km/h-0.6 1006 hPa6.6 mm
28/11/2021 14:593.6 °C89 %2.2 °C6 km/hNO31 km/h1.7 1007 hPa6.6 mm
28/11/2021 14:453.6 °C89 %2.2 °C5 km/hONO24 km/h2.8 1006 hPa6.6 mm
28/11/2021 14:443.6 °C89 %2.2 °C8 km/hNO31 km/h1.7 1006 hPa6.6 mm
28/11/2021 14:303.9 °C88 %2.2 °C18 km/hNO24 km/h0.0 1007 hPa6.6 mm
28/11/2021 14:293.9 °C88 %2.2 °C8 km/hNO31 km/h1.7 1007 hPa6.6 mm
28/11/2021 14:154.0 °C88 %2.2 °C8 km/hNNE23 km/h1.7 1006 hPa6.4 mm
28/11/2021 14:143.9 °C88 %2.2 °C8 km/hONO31 km/h1.7 1006 hPa6.4 mm
28/11/2021 14:003.8 °C89 %2.2 °C6 km/hNO23 km/h2.2 1006 hPa6.4 mm
28/11/2021 13:593.9 °C89 %2.2 °C14 km/hONO31 km/h0.6 1006 hPa6.4 mm
28/11/2021 13:453.9 °C89 %2.2 °C5 km/hNO24 km/h2.8 1006 hPa6.4 mm
28/11/2021 13:443.9 °C89 %2.2 °C6 km/hONO31 km/h2.2 1006 hPa6.4 mm
28/11/2021 13:303.9 °C90 %2.2 °C14 km/hONO21 km/h0.6 1006 hPa6.4 mm
28/11/2021 13:293.8 °C91 %2.8 °C13 km/hNO31 km/h1.1 1006 hPa6.4 mm
28/11/2021 13:153.8 °C91 %2.2 °C14 km/hONO24 km/h0.6 1006 hPa6.4 mm
28/11/2021 13:143.8 °C92 %2.8 °C13 km/hNO31 km/h1.1 1006 hPa6.4 mm
28/11/2021 13:003.6 °C92 %2.2 °C13 km/hONO19 km/h0.6 1006 hPa6.4 mm
28/11/2021 12:583.6 °C92 %2.2 °C11 km/hONO31 km/h0.6 1006 hPa6.4 mm
28/11/2021 12:443.5 °C92 %2.2 °C16 km/hNO31 km/h-0.6 1006 hPa6.4 mm
28/11/2021 12:303.6 °C92 %2.2 °C14 km/hNO19 km/h0.0 1006 hPa6.4 mm
28/11/2021 12:293.5 °C92 %2.2 °C14 km/hNO31 km/h0.0 1006 hPa6.4 mm
28/11/2021 12:153.6 °C93 %2.8 °C13 km/hONO23 km/h0.6 1006 hPa6.4 mm
28/11/2021 12:143.6 °C93 %2.8 °C10 km/hO31 km/h0.6 1006 hPa6.4 mm
28/11/2021 12:003.4 °C93 %2.2 °C16 km/hNO24 km/h-0.6 1006 hPa6.4 mm
28/11/2021 11:593.4 °C93 %2.2 °C13 km/hONO31 km/h0.6 1006 hPa6.4 mm
28/11/2021 11:453.4 °C93 %2.2 °C13 km/hNNO27 km/h0.6 1006 hPa6.4 mm
28/11/2021 11:443.4 °C93 %2.2 °C13 km/hNNO31 km/h0.6 1006 hPa6.4 mm
28/11/2021 11:303.3 °C93 %2.2 °C14 km/hO27 km/h0.0 1006 hPa6.4 mm
28/11/2021 11:293.3 °C93 %2.2 °C16 km/hO31 km/h-0.6 1006 hPa6.4 mm
28/11/2021 11:153.2 °C93 %2.2 °C21 km/hNO27 km/h-1.1 1006 hPa6.4 mm
28/11/2021 11:143.2 °C93 %2.2 °C21 km/hNO31 km/h-1.1 1006 hPa6.4 mm
28/11/2021 11:003.2 °C93 %2.2 °C23 km/hONO27 km/h-1.1 1006 hPa6.2 mm
28/11/2021 10:593.2 °C93 %2.2 °C11 km/hONO31 km/h0.6 1006 hPa6.2 mm
28/11/2021 10:453.1 °C93 %2.2 °C14 km/hO21 km/h0.0 1006 hPa6.2 mm
28/11/2021 10:443.1 °C93 %2.2 °C19 km/hNO31 km/h-0.6 1006 hPa6.2 mm
28/11/2021 10:303.1 °C94 %2.2 °C14 km/hNO19 km/h0.0 1006 hPa6.2 mm
28/11/2021 10:293.1 °C94 %2.2 °C13 km/hNO31 km/h0.6 1006 hPa6.2 mm
28/11/2021 10:153.0 °C94 %2.2 °C19 km/hNO21 km/h-1.7 1006 hPa6.2 mm
28/11/2021 10:142.9 °C94 %2.2 °C10 km/hO31 km/h0.0 1006 hPa6.2 mm
28/11/2021 10:012.9 °C94 %2.2 °C11 km/hO21 km/h0.0 1006 hPa6.2 mm
28/11/2021 09:593.0 °C94 %2.2 °C18 km/hONO31 km/h-1.1 1006 hPa6.2 mm
28/11/2021 09:452.9 °C94 %2.2 °C11 km/hSO19 km/h0.0 1005 hPa6.2 mm
28/11/2021 09:442.9 °C94 %2.2 °C6 km/hONO31 km/h1.1 1005 hPa6.2 mm
28/11/2021 09:292.9 °C94 %2.2 °C19 km/hNO31 km/h-1.7 1005 hPa6.2 mm
28/11/2021 09:152.8 °C94 %2.2 °C8 km/hONO21 km/h0.6 1005 hPa6 mm
28/11/2021 09:142.8 °C94 %2.2 °C14 km/hONO31 km/h-0.6 1005 hPa6 mm
28/11/2021 09:002.7 °C94 %1.7 °C11 km/hONO26 km/h0.0 1005 hPa6 mm
28/11/2021 08:592.7 °C94 %1.7 °C11 km/hONO31 km/h0.0 1005 hPa6 mm
28/11/2021 08:452.6 °C94 %1.7 °C6 km/hONO23 km/h1.1 1005 hPa6 mm
28/11/2021 08:442.6 °C94 %1.7 °C11 km/hO31 km/h0.0 1005 hPa6 mm
28/11/2021 08:302.6 °C94 %1.7 °C8 km/hNO24 km/h0.6 1005 hPa5.8 mm
28/11/2021 08:292.6 °C94 %1.7 °C16 km/hNO31 km/h-1.1 1005 hPa5.8 mm
28/11/2021 08:152.6 °C93 %1.7 °C14 km/hONO24 km/h-0.6 1005 hPa5.8 mm
28/11/2021 08:142.6 °C94 %1.7 °C16 km/hONO31 km/h-1.1 1005 hPa5.8 mm
28/11/2021 08:012.6 °C94 %1.7 °C11 km/hNO24 km/h0.0 1005 hPa5.6 mm
28/11/2021 07:592.6 °C94 %1.7 °C14 km/hONO31 km/h-0.6 1004 hPa5.6 mm
28/11/2021 07:462.6 °C93 %1.7 °C13 km/hNO18 km/h-0.6 1004 hPa5.4 mm
28/11/2021 07:452.6 °C94 %1.7 °C14 km/hO31 km/h-0.6 1004 hPa5.4 mm
28/11/2021 07:312.6 °C93 %1.7 °C6 km/hONO23 km/h1.1 1004 hPa5.4 mm
28/11/2021 07:302.6 °C93 %1.7 °C11 km/hNO31 km/h0.0 1004 hPa5.4 mm
28/11/2021 07:162.6 °C93 %1.7 °C6 km/hONO23 km/h1.1 1004 hPa5.4 mm
28/11/2021 07:152.6 °C93 %1.7 °C13 km/hNO31 km/h-0.6 1004 hPa5.4 mm
28/11/2021 07:012.5 °C93 %1.7 °C18 km/hNO21 km/h-1.1 1004 hPa5.2 mm
28/11/2021 07:002.5 °C93 %1.7 °C14 km/hNO31 km/h-0.6 1004 hPa5.2 mm
28/11/2021 06:462.5 °C93 %1.7 °C13 km/hONO21 km/h-0.6 1004 hPa5 mm
28/11/2021 06:452.4 °C93 %1.7 °C6 km/hNO31 km/h0.6 1004 hPa5 mm
28/11/2021 06:312.6 °C92 %1.7 °C16 km/hONO24 km/h-1.1 1004 hPa4.8 mm
28/11/2021 06:302.6 °C93 %1.7 °C8 km/hNO31 km/h0.6 1004 hPa4.8 mm
28/11/2021 06:162.8 °C93 %1.7 °C8 km/hN21 km/h0.6 1003 hPa4.2 mm
28/11/2021 06:152.8 °C93 %1.7 °C10 km/hNNO31 km/h0.0 1003 hPa4.2 mm
28/11/2021 06:012.9 °C93 %2.2 °C13 km/hNO26 km/h-0.6 1003 hPa4.2 mm
28/11/2021 06:002.9 °C93 %1.7 °C10 km/hNNO31 km/h0.0 1003 hPa4.2 mm
28/11/2021 05:463.0 °C93 %2.2 °C13 km/hNO26 km/h-0.6 1003 hPa4.2 mm
28/11/2021 05:452.9 °C93 %2.2 °C5 km/hNO31 km/h1.7 1003 hPa4.2 mm
28/11/2021 05:313.1 °C93 %2.2 °C18 km/hO26 km/h-0.6 1003 hPa4.2 mm
28/11/2021 05:303.0 °C93 %2.2 °C16 km/hO31 km/h-1.1 1003 hPa4.2 mm
28/11/2021 05:163.1 °C93 %2.2 °C18 km/hONO26 km/h-0.6 1003 hPa4 mm
28/11/2021 05:153.1 °C93 %2.2 °C13 km/hNO31 km/h0.6 1003 hPa4 mm
28/11/2021 05:003.1 °C93 %2.2 °C19 km/hNO24 km/h-0.6 1003 hPa4 mm
28/11/2021 04:593.1 °C93 %2.2 °C16 km/hNO31 km/h-0.6 1003 hPa4 mm
28/11/2021 04:453.1 °C93 %2.2 °C18 km/hONO26 km/h-0.6 1003 hPa4 mm
28/11/2021 04:443.1 °C93 %2.2 °C5 km/hO31 km/h2.2 1003 hPa4 mm
28/11/2021 04:303.2 °C93 %2.2 °C5 km/hNO23 km/h2.2 1003 hPa4 mm
28/11/2021 04:293.1 °C93 %2.2 °C3 km/hNO31 km/h2.2 1003 hPa4 mm
28/11/2021 04:153.2 °C93 %2.2 °C14 km/hNO29 km/h0.0 1003 hPa4 mm
28/11/2021 04:143.2 °C93 %2.2 °C8 km/hNNO31 km/h1.1 1003 hPa4 mm
28/11/2021 04:013.2 °C93 %2.2 °C18 km/hNNO26 km/h-0.6 1003 hPa3.8 mm
28/11/2021 03:593.3 °C93 %2.2 °C14 km/hONO31 km/h0.0 1003 hPa3.8 mm
28/11/2021 03:453.3 °C93 %2.2 °C5 km/hNO24 km/h2.2 1003 hPa3.8 mm
28/11/2021 03:443.3 °C93 %2.2 °C13 km/hONO31 km/h0.6 1003 hPa3.8 mm
28/11/2021 03:303.4 °C93 %2.2 °C8 km/hNO23 km/h1.1 1003 hPa3.8 mm
28/11/2021 03:293.4 °C93 %2.2 °C10 km/hO31 km/h0.6 1003 hPa3.8 mm
28/11/2021 03:153.4 °C93 %2.2 °C19 km/hONO23 km/h-0.6 1002 hPa3.8 mm
28/11/2021 03:143.4 °C93 %2.2 °C5 km/hNO31 km/h2.2 1002 hPa3.8 mm
28/11/2021 03:003.4 °C93 %2.2 °C11 km/hNO24 km/h0.6 1002 hPa3.8 mm
28/11/2021 02:593.4 °C93 %2.2 °C8 km/hNO31 km/h1.1 1002 hPa3.8 mm
28/11/2021 02:453.5 °C93 %2.8 °C19 km/hNO26 km/h-0.6 1002 hPa3.8 mm
28/11/2021 02:443.5 °C93 %2.8 °C5 km/hO31 km/h2.2 1002 hPa3.8 mm
28/11/2021 02:303.5 °C93 %2.8 °C11 km/hONO24 km/h0.6 1002 hPa3.8 mm
28/11/2021 02:293.4 °C93 %2.2 °C13 km/hN31 km/h0.6 1002 hPa3.8 mm
28/11/2021 02:153.5 °C93 %2.8 °C21 km/hONO26 km/h-1.1 1002 hPa3.8 mm
28/11/2021 02:143.5 °C93 %2.8 °C16 km/hNO31 km/h-0.6 1002 hPa3.8 mm
28/11/2021 02:003.5 °C93 %2.8 °C16 km/hONO29 km/h-0.6 1002 hPa3.6 mm
28/11/2021 01:593.5 °C94 %2.8 °C21 km/hONO31 km/h-1.1 1002 hPa3.6 mm
28/11/2021 01:453.5 °C94 %2.8 °C14 km/hONO31 km/h0.0 1001 hPa3.4 mm
28/11/2021 01:443.5 °C94 %2.8 °C16 km/hONO31 km/h-0.6 1001 hPa3.4 mm
28/11/2021 01:303.4 °C94 %2.8 °C13 km/hONO27 km/h0.6 1001 hPa3.2 mm
28/11/2021 01:293.4 °C94 %2.8 °C13 km/hONO31 km/h0.6 1001 hPa3.2 mm
28/11/2021 01:153.3 °C94 %2.8 °C14 km/hNO24 km/h0.0 1001 hPa2.8 mm
28/11/2021 01:143.3 °C94 %2.8 °C23 km/hNO31 km/h-1.1 1001 hPa2.8 mm
28/11/2021 01:003.2 °C94 %2.2 °C8 km/hONO26 km/h1.1 1001 hPa2.6 mm
28/11/2021 00:593.2 °C94 %2.2 °C13 km/hONO31 km/h0.6 1001 hPa2.6 mm
28/11/2021 00:453.2 °C94 %2.2 °C11 km/hO26 km/h0.6 1001 hPa2.4 mm
28/11/2021 00:443.2 °C94 %2.2 °C18 km/hNO31 km/h-0.6 1001 hPa2.4 mm
28/11/2021 00:293.3 °C94 %2.8 °C14 km/hONO31 km/h0.0 1001 hPa1.8 mm
28/11/2021 00:153.4 °C94 %2.8 °C11 km/hONO23 km/h0.6 1001 hPa0.6 mm
28/11/2021 00:003.3 °C94 %2.8 °C13 km/hONO32 km/h0.6 1001 hPa5 mm


Minima :

Température : 0.5 °C
Humidité : 81 %
Point de rosée : -1.1 °C
Vent moyen : 3 km/h
Windchill : -2.2
Pression atm. : 1001 hPa
Maxima :

Température : 4.1 °C
Humidité : 94 %
Point de rosée : 2.8 °C
Vent moyen : 23 km/h
Windchill : 2.8
Pression atm. : 1009 hPa
Rafales max : 32 km/h
Cumul de pluie sur 24H : 6.8 mm

Orçay est une commune du département Loir-et-Cher (41).
La station météorologique du réseau de l'association la plus proche de Orçay est celle de Vierzon



Icône Facebook Association Météo Centre Icône Twitter Association Météo Centre Icône Chaîne Youtube Association Météo Centre Icône contact Association Météo Centre Icône Insta Association Météo Centre